sensor_id;sensor_type;location;lat;lon;timestamp;pressure;altitude;pressure_sealevel;temperature;humidity
8641;BME280;4358;42.100;25.222;2023-07-31T00:01:12;99365.13;;;23.72;90.00
8641;BME280;4358;42.100;25.222;2023-07-31T00:03:39;99360.06;;;23.62;91.62
8641;BME280;4358;42.100;25.222;2023-07-31T00:06:05;99370.75;;;23.71;91.00
8641;BME280;4358;42.100;25.222;2023-07-31T00:08:34;99368.25;;;23.69;91.85
8641;BME280;4358;42.100;25.222;2023-07-31T00:11:00;99379.94;;;23.76;91.42
8641;BME280;4358;42.100;25.222;2023-07-31T00:13:27;99379.13;;;23.76;91.86
8641;BME280;4358;42.100;25.222;2023-07-31T00:15:54;99384.53;;;23.76;91.92
8641;BME280;4358;42.100;25.222;2023-07-31T00:18:21;99383.88;;;23.74;92.55
8641;BME280;4358;42.100;25.222;2023-07-31T00:20:48;99386.41;;;23.75;92.17
8641;BME280;4358;42.100;25.222;2023-07-31T00:23:15;99384.69;;;23.68;93.46
8641;BME280;4358;42.100;25.222;2023-07-31T00:25:43;99381.00;;;23.82;92.84
8641;BME280;4358;42.100;25.222;2023-07-31T00:28:10;99382.72;;;23.89;92.42
8641;BME280;4358;42.100;25.222;2023-07-31T00:30:36;99380.44;;;23.93;92.25
8641;BME280;4358;42.100;25.222;2023-07-31T00:33:03;99384.88;;;24.00;91.52
8641;BME280;4358;42.100;25.222;2023-07-31T00:35:30;99389.75;;;24.18;90.52
8641;BME280;4358;42.100;25.222;2023-07-31T00:37:57;99401.69;;;24.30;89.59
8641;BME280;4358;42.100;25.222;2023-07-31T00:40:24;99408.59;;;24.26;89.36
8641;BME280;4358;42.100;25.222;2023-07-31T00:42:53;99400.25;;;24.28;89.26
8641;BME280;4358;42.100;25.222;2023-07-31T00:45:19;99409.84;;;24.30;89.11
8641;BME280;4358;42.100;25.222;2023-07-31T00:47:48;99416.75;;;24.39;88.11
8641;BME280;4358;42.100;25.222;2023-07-31T00:50:15;99421.97;;;24.41;87.64
8641;BME280;4358;42.100;25.222;2023-07-31T00:52:42;99426.19;;;24.43;87.57
8641;BME280;4358;42.100;25.222;2023-07-31T00:55:09;99421.16;;;24.40;87.92
8641;BME280;4358;42.100;25.222;2023-07-31T00:57:36;99413.19;;;24.32;88.48
8641;BME280;4358;42.100;25.222;2023-07-31T01:00:07;99415.47;;;24.29;89.11
8641;BME280;4358;42.100;25.222;2023-07-31T01:02:35;99418.16;;;24.22;89.34
8641;BME280;4358;42.100;25.222;2023-07-31T01:05:03;99417.44;;;24.14;90.23
8641;BME280;4358;42.100;25.222;2023-07-31T01:07:35;99432.03;;;24.06;90.46
8641;BME280;4358;42.100;25.222;2023-07-31T01:10:11;99434.66;;;23.93;91.34
8641;BME280;4358;42.100;25.222;2023-07-31T01:12:38;99434.94;;;23.70;92.48
8641;BME280;4358;42.100;25.222;2023-07-31T01:15:08;99440.66;;;23.54;94.08
8641;BME280;4358;42.100;25.222;2023-07-31T01:17:36;99437.72;;;23.55;94.22
8641;BME280;4358;42.100;25.222;2023-07-31T01:20:08;99416.06;;;23.55;94.21
8641;BME280;4358;42.100;25.222;2023-07-31T01:22:53;99436.06;;;23.54;95.15
8641;BME280;4358;42.100;25.222;2023-07-31T01:25:34;99442.91;;;23.50;95.19
8641;BME280;4358;42.100;25.222;2023-07-31T01:28:07;99444.88;;;23.42;96.00
8641;BME280;4358;42.100;25.222;2023-07-31T01:30:38;99440.13;;;23.44;96.03
8641;BME280;4358;42.100;25.222;2023-07-31T01:33:08;99427.06;;;23.47;96.22
8641;BME280;4358;42.100;25.222;2023-07-31T01:35:36;99414.16;;;23.28;97.55
8641;BME280;4358;42.100;25.222;2023-07-31T01:38:04;99421.28;;;23.36;97.21
8641;BME280;4358;42.100;25.222;2023-07-31T01:40:31;99429.09;;;23.45;96.72
8641;BME280;4358;42.100;25.222;2023-07-31T01:42:58;99428.47;;;23.43;96.63
8641;BME280;4358;42.100;25.222;2023-07-31T01:45:26;99433.88;;;23.43;96.17
8641;BME280;4358;42.100;25.222;2023-07-31T01:47:53;99433.03;;;23.43;96.04
8641;BME280;4358;42.100;25.222;2023-07-31T01:50:19;99428.81;;;23.40;95.51
8641;BME280;4358;42.100;25.222;2023-07-31T01:52:46;99432.53;;;23.33;96.05
8641;BME280;4358;42.100;25.222;2023-07-31T01:55:13;99431.44;;;23.27;96.46
8641;BME280;4358;42.100;25.222;2023-07-31T01:57:40;99428.16;;;23.10;97.58
8641;BME280;4358;42.100;25.222;2023-07-31T02:00:07;99423.78;;;22.88;98.82
8641;BME280;4358;42.100;25.222;2023-07-31T02:02:35;99429.66;;;22.92;98.96
8641;BME280;4358;42.100;25.222;2023-07-31T02:05:02;99423.75;;;23.03;98.38
8641;BME280;4358;42.100;25.222;2023-07-31T02:07:29;99426.16;;;22.98;98.35
8641;BME280;4358;42.100;25.222;2023-07-31T02:09:56;99436.72;;;22.93;98.69
8641;BME280;4358;42.100;25.222;2023-07-31T02:12:23;99424.25;;;22.92;98.44
8641;BME280;4358;42.100;25.222;2023-07-31T02:14:50;99430.03;;;22.89;98.67
8641;BME280;4358;42.100;25.222;2023-07-31T02:17:17;99422.84;;;22.96;98.28
8641;BME280;4358;42.100;25.222;2023-07-31T02:19:45;99429.78;;;23.05;97.46
8641;BME280;4358;42.100;25.222;2023-07-31T02:22:11;99430.75;;;22.76;98.59
8641;BME280;4358;42.100;25.222;2023-07-31T02:24:38;99441.09;;;22.72;98.79
8641;BME280;4358;42.100;25.222;2023-07-31T02:27:05;99441.97;;;22.58;99.21
8641;BME280;4358;42.100;25.222;2023-07-31T02:29:32;99437.03;;;22.47;98.59
8641;BME280;4358;42.100;25.222;2023-07-31T02:31:59;99443.06;;;22.28;99.53
8641;BME280;4358;42.100;25.222;2023-07-31T02:34:26;99444.19;;;22.19;100.00
8641;BME280;4358;42.100;25.222;2023-07-31T02:36:54;99452.19;;;22.27;99.36
8641;BME280;4358;42.100;25.222;2023-07-31T02:39:21;99453.75;;;22.36;98.94
8641;BME280;4358;42.100;25.222;2023-07-31T02:41:47;99449.75;;;22.32;98.88
8641;BME280;4358;42.100;25.222;2023-07-31T02:44:14;99451.25;;;22.20;99.67
8641;BME280;4358;42.100;25.222;2023-07-31T02:46:41;99461.59;;;22.16;99.96
8641;BME280;4358;42.100;25.222;2023-07-31T02:49:08;99470.00;;;22.21;99.64
8641;BME280;4358;42.100;25.222;2023-07-31T02:51:35;99464.22;;;22.10;100.00
8641;BME280;4358;42.100;25.222;2023-07-31T02:54:03;99472.88;;;22.05;100.00
8641;BME280;4358;42.100;25.222;2023-07-31T02:56:30;99468.78;;;21.94;100.00
8641;BME280;4358;42.100;25.222;2023-07-31T02:58:56;99463.22;;;21.73;100.00
8641;BME280;4358;42.100;25.222;2023-07-31T03:01:23;99449.25;;;21.55;100.00
8641;BME280;4358;42.100;25.222;2023-07-31T03:03:50;99441.16;;;21.55;100.00
8641;BME280;4358;42.100;25.222;2023-07-31T03:06:17;99441.25;;;21.62;100.00
8641;BME280;4358;42.100;25.222;2023-07-31T03:08:44;99448.13;;;21.49;100.00
8641;BME280;4358;42.100;25.222;2023-07-31T03:11:13;99438.63;;;21.53;100.00
8641;BME280;4358;42.100;25.222;2023-07-31T03:13:40;99440.78;;;21.58;100.00
8641;BME280;4358;42.100;25.222;2023-07-31T03:16:06;99451.97;;;21.55;100.00
8641;BME280;4358;42.100;25.222;2023-07-31T03:18:33;99456.00;;;21.36;100.00
8641;BME280;4358;42.100;25.222;2023-07-31T03:21:00;99449.97;;;21.49;100.00
8641;BME280;4358;42.100;25.222;2023-07-31T03:23:27;99444.31;;;21.59;100.00
8641;BME280;4358;42.100;25.222;2023-07-31T03:25:57;99448.44;;;21.69;100.00
8641;BME280;4358;42.100;25.222;2023-07-31T03:28:25;99444.88;;;21.83;100.00
8641;BME280;4358;42.100;25.222;2023-07-31T03:30:53;99438.28;;;21.71;100.00
8641;BME280;4358;42.100;25.222;2023-07-31T03:33:19;99436.50;;;21.78;100.00
8641;BME280;4358;42.100;25.222;2023-07-31T03:35:46;99434.47;;;21.80;100.00
8641;BME280;4358;42.100;25.222;2023-07-31T03:38:13;99432.50;;;21.89;100.00
8641;BME280;4358;42.100;25.222;2023-07-31T03:40:40;99430.22;;;22.01;100.00
8641;BME280;4358;42.100;25.222;2023-07-31T03:43:07;99431.91;;;22.02;100.00
8641;BME280;4358;42.100;25.222;2023-07-31T03:45:35;99440.72;;;22.10;100.00
8641;BME280;4358;42.100;25.222;2023-07-31T03:48:03;99440.66;;;22.18;100.00
8641;BME280;4358;42.100;25.222;2023-07-31T03:50:30;99444.63;;;22.37;100.00
8641;BME280;4358;42.100;25.222;2023-07-31T03:52:57;99443.16;;;22.34;100.00
8641;BME280;4358;42.100;25.222;2023-07-31T03:55:24;99452.34;;;22.40;100.00
8641;BME280;4358;42.100;25.222;2023-07-31T03:57:50;99437.75;;;22.34;100.00
8641;BME280;4358;42.100;25.222;2023-07-31T04:00:18;99434.47;;;22.39;100.00
8641;BME280;4358;42.100;25.222;2023-07-31T04:02:46;99428.00;;;22.40;100.00
8641;BME280;4358;42.100;25.222;2023-07-31T04:05:13;99429.06;;;22.39;100.00
8641;BME280;4358;42.100;25.222;2023-07-31T04:07:40;99441.03;;;22.51;100.00
8641;BME280;4358;42.100;25.222;2023-07-31T04:10:07;99447.38;;;22.58;100.00
8641;BME280;4358;42.100;25.222;2023-07-31T04:12:34;99452.97;;;22.71;100.00
8641;BME280;4358;42.100;25.222;2023-07-31T04:15:01;99453.88;;;22.78;100.00
8641;BME280;4358;42.100;25.222;2023-07-31T04:17:27;99467.06;;;22.88;100.00
8641;BME280;4358;42.100;25.222;2023-07-31T04:19:56;99464.59;;;22.87;100.00
8641;BME280;4358;42.100;25.222;2023-07-31T04:22:22;99468.69;;;22.83;100.00
8641;BME280;4358;42.100;25.222;2023-07-31T04:24:49;99478.41;;;22.77;100.00
8641;BME280;4358;42.100;25.222;2023-07-31T04:27:16;99494.47;;;22.64;100.00
8641;BME280;4358;42.100;25.222;2023-07-31T04:29:43;99494.28;;;22.65;100.00
8641;BME280;4358;42.100;25.222;2023-07-31T04:32:11;99503.72;;;22.55;100.00
8641;BME280;4358;42.100;25.222;2023-07-31T04:34:38;99503.25;;;22.36;100.00
8641;BME280;4358;42.100;25.222;2023-07-31T04:37:06;99505.50;;;22.33;100.00
8641;BME280;4358;42.100;25.222;2023-07-31T04:39:33;99510.06;;;22.18;100.00
8641;BME280;4358;42.100;25.222;2023-07-31T04:42:00;99508.78;;;22.28;100.00
8641;BME280;4358;42.100;25.222;2023-07-31T04:44:27;99512.50;;;22.27;100.00
8641;BME280;4358;42.100;25.222;2023-07-31T04:46:54;99502.16;;;22.16;100.00
8641;BME280;4358;42.100;25.222;2023-07-31T04:49:20;99508.38;;;22.31;100.00
8641;BME280;4358;42.100;25.222;2023-07-31T04:51:47;99515.03;;;22.29;100.00
8641;BME280;4358;42.100;25.222;2023-07-31T04:54:15;99518.66;;;22.21;100.00
8641;BME280;4358;42.100;25.222;2023-07-31T04:56:42;99541.94;;;22.08;100.00
8641;BME280;4358;42.100;25.222;2023-07-31T04:59:09;99536.25;;;22.03;100.00
8641;BME280;4358;42.100;25.222;2023-07-31T05:01:36;99544.53;;;22.01;100.00
8641;BME280;4358;42.100;25.222;2023-07-31T05:04:03;99538.28;;;22.01;100.00
8641;BME280;4358;42.100;25.222;2023-07-31T05:06:30;99539.03;;;21.94;100.00
8641;BME280;4358;42.100;25.222;2023-07-31T05:08:57;99539.69;;;21.96;100.00
8641;BME280;4358;42.100;25.222;2023-07-31T05:11:25;99539.81;;;21.80;100.00
8641;BME280;4358;42.100;25.222;2023-07-31T05:13:51;99537.84;;;21.74;100.00
8641;BME280;4358;42.100;25.222;2023-07-31T05:16:18;99539.28;;;21.62;100.00
8641;BME280;4358;42.100;25.222;2023-07-31T05:18:45;99542.44;;;21.51;100.00
8641;BME280;4358;42.100;25.222;2023-07-31T05:21:12;99554.31;;;21.42;100.00
8641;BME280;4358;42.100;25.222;2023-07-31T05:23:39;99556.78;;;21.29;100.00
8641;BME280;4358;42.100;25.222;2023-07-31T05:26:06;99560.50;;;21.28;100.00
8641;BME280;4358;42.100;25.222;2023-07-31T05:28:36;99553.00;;;21.38;100.00
8641;BME280;4358;42.100;25.222;2023-07-31T05:31:04;99564.41;;;21.48;100.00
8641;BME280;4358;42.100;25.222;2023-07-31T05:33:32;99565.41;;;21.47;100.00
8641;BME280;4358;42.100;25.222;2023-07-31T05:35:59;99567.41;;;21.53;100.00
8641;BME280;4358;42.100;25.222;2023-07-31T05:38:26;99579.34;;;21.59;100.00
8641;BME280;4358;42.100;25.222;2023-07-31T05:40:53;99566.25;;;21.70;100.00
8641;BME280;4358;42.100;25.222;2023-07-31T05:43:19;99564.59;;;21.84;100.00
8641;BME280;4358;42.100;25.222;2023-07-31T05:45:48;99566.75;;;21.88;100.00
8641;BME280;4358;42.100;25.222;2023-07-31T05:48:15;99562.31;;;21.95;100.00
8641;BME280;4358;42.100;25.222;2023-07-31T05:50:43;99560.38;;;22.04;100.00
8641;BME280;4358;42.100;25.222;2023-07-31T05:53:10;99567.84;;;22.17;100.00
8641;BME280;4358;42.100;25.222;2023-07-31T05:55:36;99568.53;;;22.19;100.00
8641;BME280;4358;42.100;25.222;2023-07-31T05:58:03;99567.75;;;22.25;100.00
8641;BME280;4358;42.100;25.222;2023-07-31T06:00:30;99567.69;;;22.33;100.00
8641;BME280;4358;42.100;25.222;2023-07-31T06:02:58;99575.63;;;22.34;100.00
8641;BME280;4358;42.100;25.222;2023-07-31T06:05:25;99577.03;;;22.45;100.00
8641;BME280;4358;42.100;25.222;2023-07-31T06:07:54;99568.69;;;22.61;100.00
8641;BME280;4358;42.100;25.222;2023-07-31T06:10:21;99573.28;;;22.75;100.00
8641;BME280;4358;42.100;25.222;2023-07-31T06:12:47;99578.41;;;22.70;100.00
8641;BME280;4358;42.100;25.222;2023-07-31T06:15:14;99559.94;;;22.74;100.00
8641;BME280;4358;42.100;25.222;2023-07-31T06:17:41;99583.97;;;22.98;100.00
8641;BME280;4358;42.100;25.222;2023-07-31T06:20:10;99592.06;;;23.13;100.00
8641;BME280;4358;42.100;25.222;2023-07-31T06:22:37;99584.31;;;23.10;100.00
8641;BME280;4358;42.100;25.222;2023-07-31T06:25:04;99584.47;;;23.23;100.00
8641;BME280;4358;42.100;25.222;2023-07-31T06:27:31;99585.84;;;23.34;100.00
8641;BME280;4358;42.100;25.222;2023-07-31T06:29:58;99581.06;;;23.36;100.00
8641;BME280;4358;42.100;25.222;2023-07-31T06:32:25;99578.75;;;23.33;100.00
8641;BME280;4358;42.100;25.222;2023-07-31T06:34:52;99582.41;;;23.25;100.00
8641;BME280;4358;42.100;25.222;2023-07-31T06:37:21;99591.72;;;23.37;100.00
8641;BME280;4358;42.100;25.222;2023-07-31T06:39:47;99583.44;;;23.24;100.00
8641;BME280;4358;42.100;25.222;2023-07-31T06:42:14;99578.66;;;23.26;100.00
8641;BME280;4358;42.100;25.222;2023-07-31T06:44:41;99581.53;;;23.03;100.00
8641;BME280;4358;42.100;25.222;2023-07-31T06:47:08;99583.16;;;22.83;100.00
8641;BME280;4358;42.100;25.222;2023-07-31T06:49:34;99583.91;;;22.92;100.00
8641;BME280;4358;42.100;25.222;2023-07-31T06:52:01;99577.13;;;22.81;100.00
8641;BME280;4358;42.100;25.222;2023-07-31T06:54:29;99583.63;;;22.87;100.00
8641;BME280;4358;42.100;25.222;2023-07-31T06:56:56;99584.09;;;22.90;100.00
8641;BME280;4358;42.100;25.222;2023-07-31T06:59:23;99586.63;;;22.92;100.00
8641;BME280;4358;42.100;25.222;2023-07-31T07:01:50;99587.78;;;23.04;100.00
8641;BME280;4358;42.100;25.222;2023-07-31T07:04:16;99586.94;;;23.18;100.00
8641;BME280;4358;42.100;25.222;2023-07-31T07:06:43;99579.59;;;23.33;100.00
8641;BME280;4358;42.100;25.222;2023-07-31T07:09:10;99585.53;;;23.43;100.00
8641;BME280;4358;42.100;25.222;2023-07-31T07:11:39;99586.06;;;23.53;100.00
8641;BME280;4358;42.100;25.222;2023-07-31T07:14:05;99586.06;;;23.53;100.00
8641;BME280;4358;42.100;25.222;2023-07-31T07:16:32;99589.22;;;23.78;100.00
8641;BME280;4358;42.100;25.222;2023-07-31T07:18:59;99586.91;;;24.03;100.00
8641;BME280;4358;42.100;25.222;2023-07-31T07:21:26;99596.09;;;24.23;100.00
8641;BME280;4358;42.100;25.222;2023-07-31T07:23:53;99588.78;;;24.24;100.00
8641;BME280;4358;42.100;25.222;2023-07-31T07:26:19;99580.94;;;24.35;100.00
8641;BME280;4358;42.100;25.222;2023-07-31T07:28:48;99603.09;;;24.45;100.00
8641;BME280;4358;42.100;25.222;2023-07-31T07:31:14;99590.25;;;24.61;100.00
8641;BME280;4358;42.100;25.222;2023-07-31T07:33:41;99602.66;;;24.70;100.00
8641;BME280;4358;42.100;25.222;2023-07-31T07:36:08;99584.53;;;24.83;100.00
8641;BME280;4358;42.100;25.222;2023-07-31T07:38:35;99583.34;;;24.93;100.00
8641;BME280;4358;42.100;25.222;2023-07-31T07:41:02;99597.16;;;24.91;100.00
8641;BME280;4358;42.100;25.222;2023-07-31T07:43:29;99598.38;;;24.88;100.00
8641;BME280;4358;42.100;25.222;2023-07-31T07:45:57;99596.22;;;24.84;100.00
8641;BME280;4358;42.100;25.222;2023-07-31T07:48:24;99594.47;;;25.04;100.00
8641;BME280;4358;42.100;25.222;2023-07-31T07:50:51;99588.03;;;25.18;100.00
8641;BME280;4358;42.100;25.222;2023-07-31T07:53:18;99582.66;;;25.45;100.00
8641;BME280;4358;42.100;25.222;2023-07-31T07:55:45;99580.66;;;25.80;100.00
8641;BME280;4358;42.100;25.222;2023-07-31T07:58:11;99582.75;;;26.04;100.00
8641;BME280;4358;42.100;25.222;2023-07-31T08:00:38;99583.16;;;26.34;100.00
8641;BME280;4358;42.100;25.222;2023-07-31T08:03:06;99585.22;;;26.51;100.00
8641;BME280;4358;42.100;25.222;2023-07-31T08:05:33;99577.19;;;26.76;100.00
8641;BME280;4358;42.100;25.222;2023-07-31T08:08:00;99579.69;;;26.84;100.00
8641;BME280;4358;42.100;25.222;2023-07-31T08:10:27;99587.59;;;27.06;100.00
8641;BME280;4358;42.100;25.222;2023-07-31T08:12:54;99580.75;;;27.28;100.00
8641;BME280;4358;42.100;25.222;2023-07-31T08:15:21;99594.03;;;27.49;100.00
8641;BME280;4358;42.100;25.222;2023-07-31T08:17:47;99587.06;;;27.66;100.00
8641;BME280;4358;42.100;25.222;2023-07-31T08:20:16;99580.44;;;27.80;100.00
8641;BME280;4358;42.100;25.222;2023-07-31T08:22:42;99588.75;;;27.92;100.00
8641;BME280;4358;42.100;25.222;2023-07-31T08:25:09;99588.06;;;27.97;100.00
8641;BME280;4358;42.100;25.222;2023-07-31T08:27:36;99595.25;;;28.16;100.00
8641;BME280;4358;42.100;25.222;2023-07-31T08:30:04;99591.66;;;28.22;100.00
8641;BME280;4358;42.100;25.222;2023-07-31T08:32:31;99600.03;;;28.45;100.00
8641;BME280;4358;42.100;25.222;2023-07-31T08:34:57;99595.56;;;28.69;100.00
8641;BME280;4358;42.100;25.222;2023-07-31T08:37:25;99597.66;;;28.74;100.00
8641;BME280;4358;42.100;25.222;2023-07-31T08:39:52;99593.41;;;28.96;100.00
8641;BME280;4358;42.100;25.222;2023-07-31T08:42:20;99595.25;;;28.84;100.00
8641;BME280;4358;42.100;25.222;2023-07-31T08:44:47;99586.31;;;29.06;100.00
8641;BME280;4358;42.100;25.222;2023-07-31T08:47:16;99594.44;;;29.31;100.00
8641;BME280;4358;42.100;25.222;2023-07-31T08:49:43;99592.28;;;29.52;100.00
8641;BME280;4358;42.100;25.222;2023-07-31T08:52:10;99593.06;;;29.40;100.00
8641;BME280;4358;42.100;25.222;2023-07-31T08:54:39;99592.50;;;29.50;100.00
8641;BME280;4358;42.100;25.222;2023-07-31T08:57:07;99585.03;;;29.69;100.00
8641;BME280;4358;42.100;25.222;2023-07-31T08:59:34;99582.25;;;29.87;100.00
8641;BME280;4358;42.100;25.222;2023-07-31T09:02:06;99587.41;;;30.07;100.00
8641;BME280;4358;42.100;25.222;2023-07-31T09:04:34;99579.28;;;29.88;100.00
8641;BME280;4358;42.100;25.222;2023-07-31T09:07:03;99574.09;;;29.69;100.00
8641;BME280;4358;42.100;25.222;2023-07-31T09:09:30;99584.13;;;29.75;100.00
8641;BME280;4358;42.100;25.222;2023-07-31T09:11:59;99580.38;;;30.11;100.00
8641;BME280;4358;42.100;25.222;2023-07-31T09:14:26;99576.34;;;30.37;100.00
8641;BME280;4358;42.100;25.222;2023-07-31T09:16:54;99578.03;;;30.61;100.00
8641;BME280;4358;42.100;25.222;2023-07-31T09:19:25;99580.50;;;30.74;100.00
8641;BME280;4358;42.100;25.222;2023-07-31T09:21:53;99584.19;;;30.68;100.00
8641;BME280;4358;42.100;25.222;2023-07-31T09:24:25;99579.09;;;30.60;100.00
8641;BME280;4358;42.100;25.222;2023-07-31T09:26:54;99588.84;;;30.67;100.00
8641;BME280;4358;42.100;25.222;2023-07-31T09:29:22;99585.94;;;30.97;100.00
8641;BME280;4358;42.100;25.222;2023-07-31T09:31:50;99584.06;;;30.86;99.71
8641;BME280;4358;42.100;25.222;2023-07-31T09:34:17;99580.34;;;30.92;100.00
8641;BME280;4358;42.100;25.222;2023-07-31T09:36:46;99566.16;;;31.07;98.49
8641;BME280;4358;42.100;25.222;2023-07-31T09:39:15;99566.00;;;31.13;97.02
8641;BME280;4358;42.100;25.222;2023-07-31T09:41:43;99559.00;;;31.06;97.15
8641;BME280;4358;42.100;25.222;2023-07-31T09:44:11;99546.75;;;30.97;96.55
8641;BME280;4358;42.100;25.222;2023-07-31T09:46:39;99547.31;;;31.10;96.92
8641;BME280;4358;42.100;25.222;2023-07-31T09:49:07;99543.16;;;30.96;96.99
8641;BME280;4358;42.100;25.222;2023-07-31T09:51:35;99536.75;;;31.02;97.40
8641;BME280;4358;42.100;25.222;2023-07-31T09:54:09;99531.25;;;30.91;96.91
8641;BME280;4358;42.100;25.222;2023-07-31T09:56:37;99539.94;;;30.48;97.67
8641;BME280;4358;42.100;25.222;2023-07-31T09:59:05;99551.31;;;30.68;96.95
8641;BME280;4358;42.100;25.222;2023-07-31T10:01:32;99536.41;;;30.87;96.66
8641;BME280;4358;42.100;25.222;2023-07-31T10:04:01;99538.38;;;31.32;94.14
8641;BME280;4358;42.100;25.222;2023-07-31T10:06:28;99538.06;;;31.73;91.74
8641;BME280;4358;42.100;25.222;2023-07-31T10:08:56;99532.56;;;32.07;90.98
8641;BME280;4358;42.100;25.222;2023-07-31T10:11:24;99529.69;;;32.35;91.68
8641;BME280;4358;42.100;25.222;2023-07-31T10:13:55;99526.75;;;32.20;91.11
8641;BME280;4358;42.100;25.222;2023-07-31T10:16:22;99523.75;;;32.05;91.21
8641;BME280;4358;42.100;25.222;2023-07-31T10:18:49;99530.47;;;32.14;91.39
8641;BME280;4358;42.100;25.222;2023-07-31T10:21:19;99527.59;;;31.87;91.59
8641;BME280;4358;42.100;25.222;2023-07-31T10:23:46;99522.00;;;31.98;91.48
8641;BME280;4358;42.100;25.222;2023-07-31T10:26:14;99516.78;;;31.97;92.25
8641;BME280;4358;42.100;25.222;2023-07-31T10:28:42;99511.44;;;32.07;90.80
8641;BME280;4358;42.100;25.222;2023-07-31T10:31:10;99516.75;;;32.14;89.71
8641;BME280;4358;42.100;25.222;2023-07-31T10:33:37;99515.16;;;32.56;89.92
8641;BME280;4358;42.100;25.222;2023-07-31T10:36:12;99509.56;;;32.90;88.13
8641;BME280;4358;42.100;25.222;2023-07-31T10:38:41;99495.19;;;32.83;87.31
8641;BME280;4358;42.100;25.222;2023-07-31T10:41:08;99498.28;;;33.13;86.02
8641;BME280;4358;42.100;25.222;2023-07-31T10:43:36;99490.13;;;33.50;85.28
8641;BME280;4358;42.100;25.222;2023-07-31T10:46:07;99479.06;;;33.45;84.83
8641;BME280;4358;42.100;25.222;2023-07-31T10:48:35;99477.72;;;33.47;83.03
8641;BME280;4358;42.100;25.222;2023-07-31T10:51:07;99471.47;;;33.57;83.41
8641;BME280;4358;42.100;25.222;2023-07-31T10:53:35;99468.03;;;33.72;83.32
8641;BME280;4358;42.100;25.222;2023-07-31T10:56:05;99463.25;;;33.62;82.67
8641;BME280;4358;42.100;25.222;2023-07-31T10:58:32;99468.72;;;33.89;82.18
8641;BME280;4358;42.100;25.222;2023-07-31T11:01:01;99450.16;;;34.11;80.20
8641;BME280;4358;42.100;25.222;2023-07-31T11:03:41;99454.94;;;34.26;81.10
8641;BME280;4358;42.100;25.222;2023-07-31T11:06:08;99443.66;;;34.27;82.30
8641;BME280;4358;42.100;25.222;2023-07-31T11:08:38;99450.03;;;33.91;81.15
8641;BME280;4358;42.100;25.222;2023-07-31T11:11:10;99454.97;;;33.57;81.44
8641;BME280;4358;42.100;25.222;2023-07-31T11:13:41;99454.34;;;33.50;80.76
8641;BME280;4358;42.100;25.222;2023-07-31T11:16:09;99454.09;;;33.51;81.46
8641;BME280;4358;42.100;25.222;2023-07-31T11:18:37;99449.25;;;33.63;81.78
8641;BME280;4358;42.100;25.222;2023-07-31T11:21:05;99450.72;;;33.76;82.13
8641;BME280;4358;42.100;25.222;2023-07-31T11:23:32;99451.44;;;33.98;81.58
8641;BME280;4358;42.100;25.222;2023-07-31T11:25:59;99439.69;;;34.18;80.01
8641;BME280;4358;42.100;25.222;2023-07-31T11:28:31;99428.84;;;34.38;78.66
8641;BME280;4358;42.100;25.222;2023-07-31T11:31:00;99432.72;;;34.48;78.39
8641;BME280;4358;42.100;25.222;2023-07-31T11:33:28;99431.25;;;34.25;79.17
8641;BME280;4358;42.100;25.222;2023-07-31T11:35:55;99428.75;;;34.28;78.96
8641;BME280;4358;42.100;25.222;2023-07-31T11:38:22;99420.28;;;34.40;78.74
8641;BME280;4358;42.100;25.222;2023-07-31T11:40:50;99413.25;;;34.07;78.21
8641;BME280;4358;42.100;25.222;2023-07-31T11:43:17;99421.66;;;34.32;77.78
8641;BME280;4358;42.100;25.222;2023-07-31T11:45:46;99419.84;;;34.11;78.58
8641;BME280;4358;42.100;25.222;2023-07-31T11:48:19;99416.88;;;33.71;80.40
8641;BME280;4358;42.100;25.222;2023-07-31T11:50:46;99413.53;;;33.69;80.35
8641;BME280;4358;42.100;25.222;2023-07-31T11:53:15;99406.22;;;33.84;79.21
8641;BME280;4358;42.100;25.222;2023-07-31T11:55:43;99401.16;;;33.71;79.46
8641;BME280;4358;42.100;25.222;2023-07-31T11:58:11;99405.38;;;33.84;79.61
8641;BME280;4358;42.100;25.222;2023-07-31T12:00:38;99413.78;;;34.09;79.02
8641;BME280;4358;42.100;25.222;2023-07-31T12:03:06;99404.44;;;34.10;78.05
8641;BME280;4358;42.100;25.222;2023-07-31T12:05:33;99404.63;;;33.98;78.59
8641;BME280;4358;42.100;25.222;2023-07-31T12:08:00;99403.16;;;33.76;78.00
8641;BME280;4358;42.100;25.222;2023-07-31T12:10:28;99407.72;;;33.28;79.20
8641;BME280;4358;42.100;25.222;2023-07-31T12:13:00;99399.41;;;32.69;82.27
8641;BME280;4358;42.100;25.222;2023-07-31T12:15:35;99390.16;;;32.32;84.49
8641;BME280;4358;42.100;25.222;2023-07-31T12:18:06;99392.91;;;32.32;84.44
8641;BME280;4358;42.100;25.222;2023-07-31T12:20:33;99398.41;;;31.93;85.47
8641;BME280;4358;42.100;25.222;2023-07-31T12:23:01;99397.56;;;31.71;86.10
8641;BME280;4358;42.100;25.222;2023-07-31T12:25:29;99395.88;;;31.53;86.86
8641;BME280;4358;42.100;25.222;2023-07-31T12:27:56;99398.38;;;31.22;87.16
8641;BME280;4358;42.100;25.222;2023-07-31T12:30:27;99410.34;;;31.16;88.65
8641;BME280;4358;42.100;25.222;2023-07-31T12:32:54;99425.22;;;30.91;92.76
8641;BME280;4358;42.100;25.222;2023-07-31T12:35:22;99424.72;;;30.94;89.30
8641;BME280;4358;42.100;25.222;2023-07-31T12:37:49;99422.50;;;30.63;96.47
8641;BME280;4358;42.100;25.222;2023-07-31T12:40:16;99419.56;;;30.41;93.92
8641;BME280;4358;42.100;25.222;2023-07-31T12:42:43;99410.50;;;30.52;95.84
8641;BME280;4358;42.100;25.222;2023-07-31T12:45:09;99407.53;;;30.54;98.48
8641;BME280;4358;42.100;25.222;2023-07-31T12:47:36;99405.13;;;30.57;97.18
8641;BME280;4358;42.100;25.222;2023-07-31T12:50:04;99393.94;;;30.87;94.46
8641;BME280;4358;42.100;25.222;2023-07-31T12:52:32;99393.81;;;31.10;92.67
8641;BME280;4358;42.100;25.222;2023-07-31T12:54:59;99379.53;;;31.42;91.23
8641;BME280;4358;42.100;25.222;2023-07-31T12:57:26;99378.13;;;31.56;88.32
8641;BME280;4358;42.100;25.222;2023-07-31T12:59:52;99370.78;;;31.62;87.23
8641;BME280;4358;42.100;25.222;2023-07-31T13:02:19;99355.44;;;31.82;85.86
8641;BME280;4358;42.100;25.222;2023-07-31T13:04:46;99355.81;;;32.08;85.74
8641;BME280;4358;42.100;25.222;2023-07-31T13:07:13;99353.44;;;32.38;86.00